Share

Tours, France

9:39 AM CEST on April 25, 2014 (GMT +0200)
Val de Loire Air Base (LFOT) Elev 367 ft | 47.44 °N, 0.73 °E | Change Station

Current weather conditions updated 9 minutes ago

Overcast
Overcast
52 °F
Feels Like 52 °F
N
12
Wind Variable Wind from WSW
Sunrise 6:50 AM
Sunset 9:00 PM
Moon Waning Crescent

Today is forecast to be Cooler than yesterday.

Pressure 29.89 in
Visibility 3.7 miles
Clouds Overcast 600 ft
Dew Point 50 °F
Humidity 94%
Rainfall 0.00 in
Snow Depth Not available.
UV 1 out of 16
Pollen Not available.
Air Quality Not available.
Flu Activity Not available.
METAR LFOT 250730Z AUTO 25010KT 6000 OVC006 11/10 Q1012

More Conditions Fewer Conditions

Pressure 29.89 in
Visibility 3.7 miles
Clouds Overcast 600 ft
Dew Point 50 °F
Humidity 94%
Rainfall 0.00 in
Snow Depth Not available.
UV 1 out of 16
Pollen Not available.
Air Quality Not available.
Flu Activity Not available.
METAR LFOT 250730Z AUTO 25010KT 6000 OVC006 11/10 Q1012

More Conditions Fewer Conditions

10-Day Weather Forecast

Almanac

Astronomy

Apr. 25, 2014 Rise Set
Actual Time 6:50 AM CEST 9:00 PM CEST
Civil Twilight 6:17 AM CEST 9:33 PM CEST
Nautical Twilight 5:36 AM CEST 10:15 PM CEST
Astronomical Twilight 4:49 AM CEST 11:02 PM CEST
Moon 4:48 AM CEST 4:49 PM CEST
Length of Visible Light 15h 16m
Length of Day
14h 09m
Tomorrow will be 3m 8s longer.
Waning Crescent, 18% of the Moon is Illuminated
Today
Waning Crescent
Apr 29
New
May 6
First Quarter
May 14
Full
May 21
Last Quarter

Yesterday's Extremes

Country Highs Country Lows

Community

  • Deer in evening light
    Deer in evening light
  • Critter
    Critter
  • Jone Runs Falls
    Jone Runs Falls
  • Easter in Shenandoah National Park
    Easter in Shenandoah National Park
  • Sunset at Apalachicola Bay, Florida
    Sunset at Apalachicola Bay, Florida

WunderPhotos

Upload Photos

1,704,872 photos uploaded!

WunderBlogs® & News

Nearby

Snow Depth

Not available.

Coastal Water Temperatures

Place Temperature
No Stations Reporting

Earthquake Activity

City Distance Mag. Time & Date
No recent earthquake activity has been reported nearby.
Minimum magnitude displayed is 2.5.

Nearby Weather Stations

Station Location Temp. Dew Point Humidity Wind Precip. Elev Updated Type
Neuillé Le Lierre 52.5 °F 52 °F 98% WSW  at  4.3 mph 0.00 in / hr 282 ft 9:38 AM CEST Rapid Fire
Thilouze, Thilouze 51.6 °F 49 °F 90% SW  at  0.0 mph 0.00 in / hr 308 ft 9:36 AM CEST Normal
Le Louroux 51.1 °F 50 °F 94% South  at  4.0 mph 0.00 in / hr 322 ft 9:33 AM CEST Normal

Show More Stations Show Fewer Stations

What do you think?

We're not finished. Please let us know what you like, what you don't like, and what you are still missing.